createdAt,value
2022-07-30T00:00:58.130Z,6.17
2022-07-30T00:03:27.727Z,6.70
2022-07-30T00:05:56.401Z,6.83
2022-07-30T00:08:25.156Z,6.47
2022-07-30T00:10:54.067Z,6.37
2022-07-30T00:13:22.589Z,6.70
2022-07-30T00:15:51.190Z,6.53
2022-07-30T00:18:21.817Z,6.80
2022-07-30T00:21:31.468Z,6.90
2022-07-30T00:24:06.093Z,6.67
2022-07-30T00:26:35.471Z,6.63
2022-07-30T00:29:04.927Z,6.63
2022-07-30T00:31:36.622Z,6.20
2022-07-30T00:34:06.823Z,6.47
2022-07-30T00:36:36.088Z,6.03
2022-07-30T00:39:39.023Z,7.07
2022-07-30T00:42:08.386Z,6.57
2022-07-30T00:44:36.913Z,6.23
2022-07-30T00:47:09.927Z,7.60
2022-07-30T00:49:44.134Z,6.67
2022-07-30T00:52:13.416Z,6.27
2022-07-30T00:54:42.029Z,6.50
2022-07-30T00:57:10.557Z,6.17
2022-07-30T00:59:39.080Z,6.43
2022-07-30T01:02:12.408Z,6.70
2022-07-30T01:04:42.369Z,5.97
2022-07-30T01:07:10.889Z,6.27
2022-07-30T01:09:39.744Z,6.23
2022-07-30T01:12:10.715Z,6.23
2022-07-30T01:14:40.165Z,6.20
2022-07-30T01:17:08.945Z,6.40
2022-07-30T01:19:53.526Z,6.23
2022-07-30T01:22:36.386Z,5.70
2022-07-30T01:25:15.260Z,6.57
2022-07-30T01:27:51.621Z,5.77
2022-07-30T01:30:24.495Z,6.53
2022-07-30T01:32:55.760Z,6.10
2022-07-30T01:35:28.734Z,5.90
2022-07-30T01:38:00.990Z,6.27
2022-07-30T01:40:30.465Z,6.00
2022-07-30T01:43:26.951Z,6.30
2022-07-30T01:45:56.682Z,5.60
2022-07-30T01:48:28.106Z,6.00
2022-07-30T01:51:01.712Z,5.77
2022-07-30T01:53:33.765Z,5.80
2022-07-30T01:56:04.072Z,5.80
2022-07-30T01:58:39.764Z,5.87
2022-07-30T02:01:09.037Z,5.93
2022-07-30T02:03:39.106Z,6.00
2022-07-30T02:06:22.329Z,5.57
2022-07-30T02:08:56.408Z,5.90
2022-07-30T02:11:38.876Z,5.93
2022-07-30T02:14:17.834Z,5.87
2022-07-30T02:16:51.527Z,5.60
2022-07-30T02:19:22.143Z,5.50
2022-07-30T02:22:00.724Z,5.47
2022-07-30T02:24:33.440Z,5.70
2022-07-30T02:27:09.975Z,6.13
2022-07-30T02:29:40.673Z,5.40
2022-07-30T02:32:13.493Z,5.90
2022-07-30T02:34:46.069Z,5.90
2022-07-30T02:37:18.293Z,6.10
2022-07-30T02:40:08.968Z,6.10
2022-07-30T02:42:38.576Z,5.73
2022-07-30T02:45:23.387Z,6.50
2022-07-30T02:47:57.334Z,6.53
2022-07-30T02:50:28.481Z,6.23
2022-07-30T02:52:59.279Z,5.73
2022-07-30T02:55:31.268Z,6.83
2022-07-30T02:58:02.334Z,5.83
2022-07-30T03:00:42.138Z,6.26
2022-07-30T03:03:14.170Z,6.37
2022-07-30T03:05:56.142Z,6.20
2022-07-30T03:08:28.664Z,5.93
2022-07-30T03:10:58.656Z,5.83
2022-07-30T03:13:27.544Z,6.03
2022-07-30T03:16:02.256Z,6.10
2022-07-30T03:18:36.242Z,6.50
2022-07-30T03:21:32.066Z,6.30
2022-07-30T03:24:03.417Z,5.33
2022-07-30T03:26:32.683Z,6.50
2022-07-30T03:29:03.212Z,5.57
2022-07-30T03:31:36.334Z,6.17
2022-07-30T03:34:08.708Z,5.97
2022-07-30T03:36:40.216Z,5.90
2022-07-30T03:39:09.562Z,5.67
2022-07-30T03:41:40.191Z,6.00
2022-07-30T03:44:10.308Z,5.93
2022-07-30T03:46:42.733Z,5.67
2022-07-30T03:49:12.854Z,5.83
2022-07-30T03:51:42.456Z,5.90
2022-07-30T03:54:13.935Z,6.30
2022-07-30T03:56:43.086Z,6.20
2022-07-30T03:59:12.223Z,6.43
2022-07-30T04:01:42.694Z,6.30
2022-07-30T04:04:12.344Z,6.17
2022-07-30T04:06:40.980Z,5.67
2022-07-30T04:09:33.988Z,5.20
2022-07-30T04:12:02.820Z,5.67
2022-07-30T04:14:41.989Z,5.87
2022-07-30T04:17:18.625Z,6.03
2022-07-30T04:19:54.737Z,5.87
2022-07-30T04:22:29.527Z,6.30
2022-07-30T04:24:59.785Z,5.77
2022-07-30T04:27:30.729Z,5.40
2022-07-30T04:29:59.985Z,5.30
2022-07-30T04:32:31.749Z,6.00
2022-07-30T04:35:00.387Z,5.93
2022-07-30T04:37:29.288Z,5.43
2022-07-30T04:39:58.815Z,6.13
2022-07-30T04:42:28.977Z,5.90
2022-07-30T04:44:58.935Z,5.53
2022-07-30T04:47:29.384Z,5.70
2022-07-30T04:49:59.211Z,5.50
2022-07-30T04:52:29.165Z,5.50
2022-07-30T04:55:04.946Z,5.77
2022-07-30T04:57:35.044Z,5.67
2022-07-30T05:00:04.857Z,6.23
2022-07-30T05:02:39.156Z,5.63
2022-07-30T05:05:11.965Z,5.70
2022-07-30T05:07:41.400Z,6.80
2022-07-30T05:10:12.657Z,5.67
2022-07-30T05:13:38.045Z,5.67
2022-07-30T05:16:07.662Z,6.43
2022-07-30T05:18:37.593Z,6.30
2022-07-30T05:21:06.659Z,6.60
2022-07-30T05:23:35.882Z,5.90
2022-07-30T05:26:05.224Z,6.30
2022-07-30T05:28:33.812Z,6.43
2022-07-30T05:31:08.678Z,5.93
2022-07-30T05:33:42.313Z,6.27
2022-07-30T05:36:11.575Z,6.40
2022-07-30T05:38:40.265Z,6.77
2022-07-30T05:41:19.192Z,6.20
2022-07-30T05:43:58.045Z,9.23
2022-07-30T05:46:27.240Z,6.63
2022-07-30T05:48:57.572Z,6.20
2022-07-30T05:51:26.105Z,6.20
2022-07-30T05:53:55.049Z,5.93
2022-07-30T05:56:23.653Z,6.10
2022-07-30T05:58:52.262Z,6.30
2022-07-30T06:01:20.812Z,6.30
2022-07-30T06:03:49.373Z,6.53
2022-07-30T06:06:22.872Z,5.93
2022-07-30T06:08:51.978Z,7.17
2022-07-30T06:11:20.917Z,5.63
2022-07-30T06:13:49.448Z,6.73
2022-07-30T06:16:18.008Z,6.13
2022-07-30T06:18:57.457Z,5.97
2022-07-30T06:21:27.392Z,6.53
2022-07-30T06:23:56.133Z,6.00
2022-07-30T06:26:24.683Z,6.00
2022-07-30T06:28:53.250Z,5.63
2022-07-30T06:31:21.877Z,6.43
2022-07-30T06:33:52.446Z,5.77
2022-07-30T06:36:20.987Z,5.87
2022-07-30T06:38:51.113Z,5.90
2022-07-30T06:41:19.720Z,5.73
2022-07-30T06:43:48.260Z,6.23
2022-07-30T06:46:16.815Z,6.30
2022-07-30T06:48:45.640Z,5.90
2022-07-30T06:51:14.242Z,6.50
2022-07-30T06:53:43.226Z,6.17
2022-07-30T06:56:13.940Z,6.00
2022-07-30T06:58:42.637Z,6.27
2022-07-30T07:01:11.647Z,6.40
2022-07-30T07:03:41.023Z,6.10
2022-07-30T07:06:10.454Z,5.57
2022-07-30T07:08:40.036Z,5.60
2022-07-30T07:11:08.858Z,5.90
2022-07-30T07:13:38.710Z,6.07
2022-07-30T07:16:07.419Z,6.13
2022-07-30T07:18:35.934Z,5.63
2022-07-30T07:21:04.629Z,6.10
2022-07-30T07:23:41.368Z,5.60
2022-07-30T07:26:12.138Z,6.10
2022-07-30T07:28:42.447Z,5.50
2022-07-30T07:31:11.515Z,5.57
2022-07-30T07:33:59.968Z,5.70
2022-07-30T07:36:44.119Z,5.70
2022-07-30T07:39:13.167Z,5.87
2022-07-30T07:41:49.076Z,5.63
2022-07-30T07:44:19.558Z,6.20
2022-07-30T07:46:48.415Z,5.57
2022-07-30T07:49:42.566Z,6.77
2022-07-30T07:52:11.080Z,5.80
2022-07-30T07:54:39.842Z,5.97
2022-07-30T07:57:10.468Z,5.40
2022-07-30T07:59:42.781Z,5.90
2022-07-30T08:02:11.572Z,5.60
2022-07-30T08:04:40.337Z,5.73
2022-07-30T08:07:09.003Z,5.20
2022-07-30T08:09:43.781Z,5.63
2022-07-30T08:12:13.554Z,5.45
2022-07-30T08:14:43.613Z,5.63
2022-07-30T08:17:12.260Z,5.32
2022-07-30T08:19:40.896Z,6.10
2022-07-30T08:22:10.165Z,5.88
2022-07-30T08:24:38.712Z,5.47
2022-07-30T08:27:07.322Z,6.10
2022-07-30T08:29:36.399Z,5.78
2022-07-30T08:32:07.283Z,5.38
2022-07-30T08:34:39.177Z,5.90
2022-07-30T08:37:07.988Z,5.50
2022-07-30T08:39:36.690Z,6.45
2022-07-30T08:42:06.232Z,6.00
2022-07-30T08:44:37.316Z,6.05
2022-07-30T08:47:10.982Z,6.25
2022-07-30T08:49:40.770Z,5.57
2022-07-30T08:52:11.424Z,5.80
2022-07-30T08:54:41.324Z,6.28
2022-07-30T08:57:10.423Z,6.20
2022-07-30T08:59:59.806Z,5.65
2022-07-30T09:02:32.857Z,5.60
2022-07-30T09:05:01.735Z,5.57
2022-07-30T09:07:30.550Z,5.80
2022-07-30T09:10:00.722Z,5.90
2022-07-30T09:12:41.829Z,5.82
2022-07-30T09:15:14.324Z,5.40
2022-07-30T09:17:55.365Z,5.57
2022-07-30T09:20:28.897Z,6.10
2022-07-30T09:23:01.689Z,5.47
2022-07-30T09:25:40.003Z,5.78
2022-07-30T09:28:16.245Z,6.03
2022-07-30T09:31:10.622Z,5.10
2022-07-30T09:33:43.069Z,5.28
2022-07-30T09:36:14.685Z,5.80
2022-07-30T09:38:48.879Z,6.15
2022-07-30T09:41:38.287Z,5.47
2022-07-30T09:44:08.721Z,5.35
2022-07-30T09:46:45.482Z,5.32
2022-07-30T09:49:27.514Z,5.43
2022-07-30T09:52:29.479Z,5.40
2022-07-30T09:54:58.366Z,5.00
2022-07-30T09:57:27.815Z,5.10
2022-07-30T10:00:00.037Z,4.90
2022-07-30T10:02:33.930Z,4.80
2022-07-30T10:05:16.667Z,5.40
2022-07-30T10:07:53.363Z,5.10
2022-07-30T10:10:26.286Z,5.18
2022-07-30T10:12:59.655Z,5.25
2022-07-30T10:15:33.172Z,5.15
2022-07-30T10:18:29.260Z,5.13
2022-07-30T10:21:01.185Z,5.50
2022-07-30T10:23:35.910Z,5.68
2022-07-30T10:26:05.190Z,5.68
2022-07-30T10:29:02.993Z,5.90
2022-07-30T10:31:46.792Z,6.10
2022-07-30T10:34:23.976Z,6.25
2022-07-30T10:37:04.509Z,5.93
2022-07-30T10:39:40.085Z,6.15
2022-07-30T10:42:32.346Z,6.38
2022-07-30T10:45:19.925Z,6.30
2022-07-30T10:47:50.541Z,6.00
2022-07-30T10:50:22.689Z,6.03
2022-07-30T10:52:56.815Z,5.85
2022-07-30T10:55:36.525Z,6.25
2022-07-30T10:58:09.768Z,6.82
2022-07-30T11:01:01.973Z,6.25
2022-07-30T11:03:40.966Z,7.15
2022-07-30T11:06:37.218Z,7.35
2022-07-30T11:10:09.595Z,7.45
2022-07-30T11:13:11.855Z,6.60
2022-07-30T11:16:00.161Z,6.65
2022-07-30T11:18:29.623Z,6.65
2022-07-30T11:21:22.670Z,6.72
2022-07-30T11:23:56.853Z,7.38
2022-07-30T11:26:54.992Z,7.13
2022-07-30T11:29:50.794Z,7.00
2022-07-30T11:32:32.559Z,6.63
2022-07-30T11:35:23.368Z,7.00
2022-07-30T11:38:18.727Z,6.60
2022-07-30T11:41:13.112Z,6.72
2022-07-30T11:43:43.137Z,7.30
2022-07-30T11:46:16.290Z,6.80
2022-07-30T11:48:58.518Z,7.15
2022-07-30T11:51:27.964Z,7.07
2022-07-30T11:54:18.447Z,7.22
2022-07-30T11:56:52.458Z,6.72
2022-07-30T11:59:22.758Z,7.88
2022-07-30T12:01:52.769Z,7.22
2022-07-30T12:04:44.685Z,7.18
2022-07-30T12:07:13.275Z,7.07
2022-07-30T12:10:17.423Z,7.32
2022-07-30T12:13:08.700Z,6.90
2022-07-30T12:15:41.743Z,7.03
2022-07-30T12:18:28.749Z,6.88
2022-07-30T12:21:03.516Z,7.78
2022-07-30T12:23:33.768Z,6.70
2022-07-30T12:26:02.385Z,6.90
2022-07-30T12:29:00.830Z,6.82
2022-07-30T12:31:30.999Z,7.00
2022-07-30T12:34:00.913Z,7.30
2022-07-30T12:36:32.448Z,6.68
2022-07-30T12:39:03.083Z,7.18
2022-07-30T12:41:46.612Z,7.05
2022-07-30T12:44:37.497Z,7.38
2022-07-30T12:47:20.525Z,7.30
2022-07-30T12:50:18.221Z,7.10
2022-07-30T12:52:52.435Z,7.25
2022-07-30T12:55:30.780Z,7.55
2022-07-30T12:58:07.666Z,6.90
2022-07-30T13:01:01.803Z,7.40
2022-07-30T13:03:39.262Z,7.20
2022-07-30T13:06:19.634Z,7.72
2022-07-30T13:08:56.966Z,7.15
2022-07-30T13:11:28.301Z,7.65
2022-07-30T13:13:56.927Z,7.10
2022-07-30T13:16:25.382Z,7.93
2022-07-30T13:18:55.523Z,7.03
2022-07-30T13:21:24.767Z,7.55
2022-07-30T13:23:53.664Z,8.20
2022-07-30T13:26:22.576Z,7.70
2022-07-30T13:28:51.045Z,7.43
2022-07-30T13:31:19.707Z,7.45
2022-07-30T13:33:48.233Z,7.43
2022-07-30T13:36:18.843Z,7.97
2022-07-30T13:38:52.057Z,7.88
2022-07-30T13:41:21.218Z,7.50
2022-07-30T13:43:49.836Z,7.68
2022-07-30T13:46:18.380Z,7.10
2022-07-30T13:48:47.164Z,7.43
2022-07-30T13:51:17.683Z,7.32
2022-07-30T13:53:46.189Z,6.82
2022-07-30T13:56:14.717Z,7.43
2022-07-30T13:58:44.327Z,6.85
2022-07-30T14:01:15.869Z,7.50
2022-07-30T14:03:50.606Z,7.07
2022-07-30T14:06:21.591Z,8.23
2022-07-30T14:08:50.188Z,8.23
2022-07-30T14:11:18.801Z,10.15
2022-07-30T14:13:47.325Z,9.52
2022-07-30T14:16:42.372Z,9.40
2022-07-30T14:19:04.562Z,8.88
2022-07-30T14:21:34.583Z,9.30
2022-07-30T14:24:05.128Z,9.07
2022-07-30T14:26:36.776Z,8.68
2022-07-30T14:29:05.787Z,9.75
2022-07-30T14:31:34.724Z,9.38
2022-07-30T14:34:03.856Z,10.05
2022-07-30T14:36:34.108Z,9.45
2022-07-30T14:39:04.289Z,8.75
2022-07-30T14:41:34.918Z,11.23
2022-07-30T14:44:03.438Z,9.13
2022-07-30T14:46:32.323Z,9.85
2022-07-30T14:49:00.908Z,9.32
2022-07-30T14:51:33.889Z,8.02
2022-07-30T14:54:05.216Z,7.13
2022-07-30T14:56:33.879Z,7.03
2022-07-30T14:59:02.476Z,7.32
2022-07-30T15:01:31.061Z,6.85
2022-07-30T15:04:00.257Z,6.63
2022-07-30T15:06:29.389Z,6.90
2022-07-30T15:08:58.414Z,6.78
2022-07-30T15:11:31.113Z,7.10
2022-07-30T15:14:05.315Z,7.28
2022-07-30T15:16:34.510Z,7.43
2022-07-30T15:19:03.487Z,7.78
2022-07-30T15:21:32.238Z,9.52
2022-07-30T15:24:00.865Z,8.00
2022-07-30T15:26:30.956Z,7.60
2022-07-30T15:28:59.562Z,8.63
2022-07-30T15:31:28.221Z,14.10
2022-07-30T15:33:56.731Z,9.30
2022-07-30T15:36:25.317Z,9.77
2022-07-30T15:38:53.810Z,9.07
2022-07-30T15:41:23.853Z,7.80
2022-07-30T15:43:53.692Z,7.25
2022-07-30T15:46:22.156Z,6.85
2022-07-30T15:48:51.349Z,7.80
2022-07-30T15:51:20.210Z,6.90
2022-07-30T15:53:48.903Z,7.05
2022-07-30T15:56:18.683Z,7.72
2022-07-30T15:58:50.375Z,7.40
2022-07-30T16:01:45.196Z,7.63
2022-07-30T16:04:19.424Z,6.85
2022-07-30T16:06:48.830Z,7.13
2022-07-30T16:09:39.209Z,7.53
2022-07-30T16:12:09.091Z,7.15
2022-07-30T16:14:37.759Z,6.97
2022-07-30T16:17:13.677Z,6.97
2022-07-30T16:19:45.021Z,8.02
2022-07-30T16:22:15.004Z,144.25
2022-07-30T16:24:52.647Z,371.05
2022-07-30T16:27:21.276Z,248.30
2022-07-30T16:29:49.824Z,67.73
2022-07-30T16:32:19.817Z,23.23
2022-07-30T16:34:48.287Z,20.70
2022-07-30T16:37:16.811Z,49.20
2022-07-30T16:40:11.833Z,26.80
2022-07-30T16:42:40.401Z,9.10
2022-07-30T16:45:10.317Z,8.27
2022-07-30T16:47:40.348Z,8.20
2022-07-30T16:50:09.964Z,7.90
2022-07-30T16:52:38.615Z,8.60
2022-07-30T16:55:08.940Z,9.27
2022-07-30T16:57:37.516Z,8.27
2022-07-30T17:00:09.244Z,7.95
2022-07-30T17:02:39.583Z,8.40
2022-07-30T17:05:13.762Z,8.20
2022-07-30T17:07:45.785Z,8.70
2022-07-30T17:10:14.278Z,8.20
2022-07-30T17:12:52.611Z,7.67
2022-07-30T17:15:22.791Z,8.13
2022-07-30T17:18:03.417Z,8.50
2022-07-30T17:20:32.774Z,8.00
2022-07-30T17:23:01.484Z,7.37
2022-07-30T17:25:30.748Z,7.77
2022-07-30T17:28:00.596Z,7.70
2022-07-30T17:30:30.131Z,7.93
2022-07-30T17:32:58.923Z,8.40
2022-07-30T17:35:29.113Z,8.30
2022-07-30T17:37:57.588Z,8.20
2022-07-30T17:40:55.872Z,7.30
2022-07-30T17:43:24.486Z,7.60
2022-07-30T17:45:56.010Z,7.30
2022-07-30T17:48:49.716Z,8.17
2022-07-30T17:51:19.659Z,7.40
2022-07-30T17:54:10.492Z,7.67
2022-07-30T17:56:39.329Z,7.20
2022-07-30T17:59:13.513Z,7.47
2022-07-30T18:01:42.606Z,7.40
2022-07-30T18:04:11.237Z,8.10
2022-07-30T18:06:41.333Z,7.70
2022-07-30T18:09:11.095Z,8.47
2022-07-30T18:11:39.685Z,8.73
2022-07-30T18:14:08.204Z,8.70
2022-07-30T18:16:36.862Z,9.57
2022-07-30T18:19:06.445Z,10.23
2022-07-30T18:21:35.848Z,11.07
2022-07-30T18:24:09.525Z,11.77
2022-07-30T18:26:41.788Z,12.33
2022-07-30T18:29:13.950Z,13.60
2022-07-30T18:31:45.905Z,12.13
2022-07-30T18:34:14.469Z,11.83
2022-07-30T18:36:43.341Z,11.37
2022-07-30T18:39:13.453Z,11.50
2022-07-30T18:41:41.976Z,12.20
2022-07-30T18:44:10.923Z,12.10
2022-07-30T18:46:39.879Z,12.17
2022-07-30T18:49:26.973Z,13.00
2022-07-30T18:51:59.529Z,13.60
2022-07-30T18:54:29.872Z,12.73
2022-07-30T18:56:58.690Z,12.50
2022-07-30T18:59:52.313Z,12.43
2022-07-30T19:02:21.221Z,13.80
2022-07-30T19:04:49.691Z,12.17
2022-07-30T19:07:18.295Z,12.37
2022-07-30T19:09:48.284Z,12.87
2022-07-30T19:12:17.400Z,13.90
2022-07-30T19:14:45.930Z,12.67
2022-07-30T19:17:15.362Z,13.00
2022-07-30T19:19:45.006Z,13.73
2022-07-30T19:22:13.767Z,13.03
2022-07-30T19:37:27.957Z,11.07
2022-07-30T19:40:05.755Z,11.10
2022-07-30T19:42:35.409Z,11.70
2022-07-30T19:45:11.211Z,12.90
2022-07-30T19:47:42.622Z,12.67
2022-07-30T19:50:12.528Z,12.20
2022-07-30T19:52:51.214Z,12.60
2022-07-30T19:55:30.837Z,12.63
2022-07-30T19:58:05.315Z,13.17
2022-07-30T20:00:49.230Z,14.03
2022-07-30T20:03:26.275Z,15.00
2022-07-30T20:06:00.476Z,14.77
2022-07-30T20:08:30.352Z,14.73
2022-07-30T20:10:59.459Z,14.53
2022-07-30T20:13:45.095Z,14.10
2022-07-30T20:16:15.611Z,15.30
2022-07-30T20:18:46.517Z,14.17
2022-07-30T20:21:16.417Z,14.43
2022-07-30T20:23:46.641Z,13.63
2022-07-30T20:26:16.067Z,13.27
2022-07-30T20:28:52.501Z,13.23
2022-07-30T20:31:22.481Z,12.70
2022-07-30T20:33:51.209Z,12.67
2022-07-30T20:36:22.278Z,12.27
2022-07-30T20:38:52.179Z,12.67
2022-07-30T20:41:20.872Z,12.10
2022-07-30T20:43:51.829Z,12.67
2022-07-30T20:46:23.472Z,12.13
2022-07-30T20:48:52.751Z,12.10
2022-07-30T20:51:21.733Z,11.17
2022-07-30T20:54:06.501Z,11.63
2022-07-30T20:56:35.339Z,11.87
2022-07-30T20:59:04.065Z,12.17
2022-07-30T21:01:32.587Z,11.80
2022-07-30T21:04:02.848Z,11.43
2022-07-30T21:06:31.687Z,12.83
2022-07-30T21:09:30.221Z,16.63
2022-07-30T21:12:18.812Z,12.00
2022-07-30T21:15:01.164Z,11.17
2022-07-30T21:17:30.176Z,11.17
2022-07-30T21:19:58.831Z,10.53
2022-07-30T21:22:27.413Z,9.27
2022-07-30T21:24:57.287Z,10.13
2022-07-30T21:27:29.921Z,10.07
2022-07-30T21:29:58.706Z,10.37
2022-07-30T21:32:28.481Z,9.73
2022-07-30T21:34:57.075Z,11.10
2022-07-30T21:37:42.909Z,11.50
2022-07-30T21:40:15.181Z,12.33
2022-07-30T21:42:48.248Z,11.77
2022-07-30T21:45:17.492Z,12.33
2022-07-30T21:47:47.939Z,10.67
2022-07-30T21:50:17.239Z,11.63
2022-07-30T21:52:45.851Z,11.17
2022-07-30T21:55:15.740Z,10.77
2022-07-30T21:57:44.317Z,10.20
2022-07-30T22:00:22.455Z,10.60
2022-07-30T22:02:53.323Z,10.43
2022-07-30T22:05:23.531Z,9.20
2022-07-30T22:07:52.298Z,10.23
2022-07-30T22:10:22.296Z,10.90
2022-07-30T22:12:57.080Z,11.53
2022-07-30T22:15:25.741Z,11.77
2022-07-30T22:17:58.735Z,11.67
2022-07-30T22:20:31.627Z,12.70
2022-07-30T22:23:04.599Z,13.23
2022-07-30T22:25:41.693Z,12.40
2022-07-30T22:28:16.830Z,12.77
2022-07-30T22:30:45.641Z,11.30
2022-07-30T22:33:17.527Z,11.63
2022-07-30T22:35:49.486Z,12.57
2022-07-30T22:38:19.386Z,12.90
2022-07-30T22:40:49.817Z,13.30
2022-07-30T22:43:18.337Z,12.07
2022-07-30T22:45:49.155Z,13.00
2022-07-30T22:48:19.677Z,12.23
2022-07-30T22:50:51.799Z,12.20
2022-07-30T22:54:10.763Z,13.43
2022-07-30T22:56:15.380Z,13.27
2022-07-30T22:58:45.186Z,12.20
2022-07-30T23:01:17.992Z,12.60
2022-07-30T23:03:48.079Z,12.67
2022-07-30T23:06:16.940Z,11.40
2022-07-30T23:08:49.301Z,13.10
2022-07-30T23:11:19.412Z,13.70
2022-07-30T23:13:49.435Z,12.53
2022-07-30T23:16:17.988Z,11.87
2022-07-30T23:18:46.655Z,13.50
2022-07-30T23:21:15.273Z,12.33
2022-07-30T23:23:44.388Z,12.17
2022-07-30T23:26:12.949Z,12.90
2022-07-30T23:28:42.973Z,12.30
2022-07-30T23:31:11.586Z,11.70
2022-07-30T23:33:40.432Z,11.23
2022-07-30T23:36:10.793Z,11.87
2022-07-30T23:38:39.793Z,10.97
2022-07-30T23:41:08.768Z,11.50
2022-07-30T23:43:38.475Z,11.40
2022-07-30T23:46:09.754Z,12.10
2022-07-30T23:48:40.157Z,12.40
2022-07-30T23:51:09.133Z,12.77
2022-07-30T23:53:37.918Z,12.43
2022-07-30T23:56:08.063Z,11.87
2022-07-30T23:58:36.946Z,12.03
